Time;durP1;ratioP1;P1;durP2;ratioP2;P2;SDS_P1;SDS_P2;PMS_P1;PMS_P2;Temp;Humidity;BMP_temperature;BMP_pressure;BME280_temperature;BME280_humidity;BME280_pressure;Samples;Min_cycle;Max_cycle;Signal;HPM_P1;HPM_P2
2023/01/24 00:00:38;;;;;;;37.27;26.70;;;3.70;86.30;;;;;;5057708;28;20181;-82
2023/01/24 00:03:04;;;;;;;37.37;26.50;;;3.90;87.50;;;;;;5055812;28;20589;-85
2023/01/24 00:05:32;;;;;;;33.27;25.33;;;3.80;87.80;;;;;;5060896;28;20185;-83
2023/01/24 00:07:58;;;;;;;34.83;24.47;;;3.70;87.70;;;;;;5058319;28;20226;-82
2023/01/24 00:10:25;;;;;;;35.80;27.03;;;3.70;88.70;;;;;;5055989;28;20177;-83
2023/01/24 00:12:52;;;;;;;35.37;26.93;;;3.70;88.20;;;;;;5055718;28;20196;-82
2023/01/24 00:15:18;;;;;;;35.73;25.70;;;3.70;88.50;;;;;;5055722;28;20188;-84
2023/01/24 00:17:44;;;;;;;35.50;27.00;;;3.70;87.60;;;;;;5055597;28;20181;-84
2023/01/24 00:20:10;;;;;;;38.17;28.17;;;3.70;89.00;;;;;;5055230;28;20236;-82
2023/01/24 00:22:37;;;;;;;33.23;24.07;;;3.70;88.70;;;;;;5058114;28;20649;-83
2023/01/24 00:25:03;;;;;;;30.23;23.10;;;3.70;88.50;;;;;;5053876;28;20181;-82
2023/01/24 00:27:31;;;;;;;31.33;20.23;;;3.70;88.40;;;;;;5055835;28;20169;-84
2023/01/24 00:29:57;;;;;;;31.50;24.80;;;3.60;89.00;;;;;;5055708;28;20188;-85
2023/01/24 00:32:23;;;;;;;36.77;24.93;;;3.60;90.10;;;;;;5057148;28;20952;-85
2023/01/24 00:34:48;;;;;;;34.60;25.53;;;3.50;90.40;;;;;;5055669;28;20188;-82
2023/01/24 00:37:14;;;;;;;36.77;26.27;;;3.60;90.70;;;;;;5056494;28;20246;-82
2023/01/24 00:39:40;;;;;;;37.47;27.07;;;3.60;90.40;;;;;;5055417;28;20283;-84
2023/01/24 00:42:05;;;;;;;37.63;28.33;;;3.60;89.20;;;;;;5057650;28;20176;-83
2023/01/24 00:44:31;;;;;;;34.90;24.83;;;3.80;90.20;;;;;;5055769;28;20302;-85
2023/01/24 00:46:56;;;;;;;35.87;26.37;;;3.70;90.20;;;;;;5059752;28;20185;-82
2023/01/24 00:49:22;;;;;;;36.13;26.63;;;3.60;90.10;;;;;;5075360;28;20182;-81
2023/01/24 00:51:48;;;;;;;34.73;25.63;;;3.60;90.30;;;;;;5078240;28;20169;-83
2023/01/24 00:54:13;;;;;;;32.27;23.17;;;3.60;89.90;;;;;;5072491;28;20201;-81
2023/01/24 00:56:39;;;;;;;31.80;22.53;;;3.70;90.10;;;;;;5072282;28;20271;-82
2023/01/24 00:59:06;;;;;;;30.57;22.60;;;3.60;90.70;;;;;;5062413;28;20208;-82
2023/01/24 01:01:34;;;;;;;30.47;23.33;;;3.70;91.10;;;;;;5054325;28;20196;-82
2023/01/24 01:04:02;;;;;;;37.20;26.70;;;3.60;90.90;;;;;;5066755;28;20187;-81
2023/01/24 01:06:29;;;;;;;34.43;24.97;;;3.60;91.30;;;;;;5070089;28;20169;-84
2023/01/24 01:08:58;;;;;;;36.03;25.87;;;3.60;91.40;;;;;;5057781;28;20184;-82
2023/01/24 01:11:24;;;;;;;34.33;25.20;;;3.60;91.40;;;;;;5055183;28;20191;-82
2023/01/24 01:13:56;;;;;;;37.87;26.63;;;3.70;90.80;;;;;;5056203;28;20169;-81
2023/01/24 01:16:23;;;;;;;33.90;25.13;;;3.60;90.80;;;;;;5064211;28;20184;-81
2023/01/24 01:18:52;;;;;;;33.80;24.10;;;3.70;91.40;;;;;;5073935;28;20198;-81
2023/01/24 01:21:21;;;;;;;30.30;20.67;;;3.60;91.50;;;;;;5075916;28;20173;-81
2023/01/24 01:23:47;;;;;;;35.20;25.17;;;3.60;91.10;;;;;;5074469;28;20180;-82
2023/01/24 01:26:19;;;;;;;36.30;22.43;;;3.70;91.30;;;;;;5071334;28;20208;-82
2023/01/24 01:28:45;;;;;;;31.40;20.93;;;3.60;91.80;;;;;;5055778;28;20161;-82
2023/01/24 01:31:13;;;;;;;35.70;22.87;;;3.60;92.10;;;;;;5054081;28;20307;-81
2023/01/24 01:33:38;;;;;;;35.93;25.97;;;3.50;92.30;;;;;;5054110;28;20173;-82
2023/01/24 01:36:04;;;;;;;37.77;26.80;;;3.60;92.40;;;;;;5054369;28;20383;-82
2023/01/24 01:38:31;;;;;;;34.77;24.20;;;3.60;91.60;;;;;;5055084;28;20205;-82
2023/01/24 01:40:57;;;;;;;34.43;23.83;;;3.60;91.20;;;;;;5053400;28;20183;-82
2023/01/24 01:43:25;;;;;;;31.27;21.90;;;3.60;91.00;;;;;;5055232;28;20178;-81
2023/01/24 01:45:53;;;;;;;35.33;24.57;;;3.60;91.20;;;;;;5072909;28;20181;-81
2023/01/24 01:48:37;;;;;;;30.57;22.17;;;3.60;91.50;;;;;;5074325;28;20168;-79
2023/01/24 01:51:29;;;;;;;30.00;21.63;;;3.60;91.20;;;;;;5075022;28;20149;-80
2023/01/24 01:54:26;;;;;;;34.60;24.60;;;3.60;91.10;;;;;;5062993;28;20191;-79
2023/01/24 01:56:54;;;;;;;33.90;24.27;;;3.60;90.90;;;;;;5054809;28;20173;-81
2023/01/24 01:59:26;;;;;;;32.77;24.43;;;3.70;90.80;;;;;;5052127;28;20216;-81
2023/01/24 02:01:54;;;;;;;29.40;22.77;;;3.80;90.50;;;;;;5054251;28;20172;-81
2023/01/24 02:04:34;;;;;;;31.03;23.40;;;3.70;89.40;;;;;;5053220;28;20219;-82
2023/01/24 02:07:02;;;;;;;29.57;23.63;;;3.70;87.00;;;;;;5053363;28;20172;-81
2023/01/24 02:09:33;;;;;;;30.63;22.67;;;3.80;87.00;;;;;;5053399;28;20173;-80
2023/01/24 02:12:03;;;;;;;28.77;21.63;;;3.70;87.30;;;;;;5052316;28;20188;-81
2023/01/24 02:17:31;;;;;;;29.20;21.80;;;3.80;88.20;;;;;;5030400;28;20244;-81
2023/01/24 02:20:24;;;;;;;31.07;23.67;;;3.70;88.70;;;;;;5052318;28;20209;-83
2023/01/24 02:23:17;;;;;;;29.17;23.10;;;3.60;90.30;;;;;;5053266;28;20169;-82
2023/01/24 02:26:09;;;;;;;28.77;22.47;;;3.60;90.60;;;;;;5051795;28;20185;-80
2023/01/24 02:28:35;;;;;;;29.03;21.43;;;3.60;90.30;;;;;;5052602;28;20184;-82
2023/01/24 02:31:02;;;;;;;28.83;21.70;;;3.70;88.70;;;;;;5052562;28;20322;-80
2023/01/24 02:33:30;;;;;;;23.40;17.10;;;3.70;87.10;;;;;;5052622;28;20555;-81
2023/01/24 02:36:19;;;;;;;28.57;21.33;;;3.60;88.40;;;;;;5053570;28;20165;-81
2023/01/24 02:38:53;;;;;;;31.23;23.87;;;3.60;87.30;;;;;;5052297;28;20214;-83
2023/01/24 02:41:25;;;;;;;27.37;22.27;;;3.60;87.90;;;;;;5053833;28;20173;-80
2023/01/24 02:43:54;;;;;;;29.73;23.47;;;3.60;88.90;;;;;;5052669;28;20271;-80
2023/01/24 02:46:20;;;;;;;29.30;21.83;;;3.60;87.80;;;;;;5052781;28;20181;-80
2023/01/24 02:48:45;;;;;;;29.50;23.80;;;3.70;88.40;;;;;;5052664;28;20547;-81
2023/01/24 02:53:55;;;;;;;26.97;20.47;;;3.70;88.50;;;;;;5052842;28;20191;-80
2023/01/24 02:59:05;;;;;;;28.20;20.93;;;3.60;87.50;;;;;;5056202;28;20243;-81
2023/01/24 03:01:32;;;;;;;31.63;23.97;;;3.60;88.60;;;;;;5057000;28;20168;-81
2023/01/24 03:03:58;;;;;;;27.50;21.33;;;3.50;88.30;;;;;;5055305;28;20256;-82
2023/01/24 03:06:23;;;;;;;29.37;21.77;;;3.60;87.50;;;;;;5058833;28;20204;-81
2023/01/24 03:08:49;;;;;;;27.27;21.60;;;3.60;87.40;;;;;;5057256;28;20308;-81
2023/01/24 03:11:15;;;;;;;28.47;21.10;;;3.60;86.40;;;;;;5055644;28;20218;-82
2023/01/24 03:35:36;;;;;;;31.80;23.47;;;3.70;88.10;;;;;;5058028;28;20218;-82
2023/01/24 03:40:50;;;;;;;29.17;22.93;;;3.70;88.20;;;;;;5057420;28;20191;-82
2023/01/24 03:43:16;;;;;;;30.33;23.47;;;3.70;86.80;;;;;;5055061;28;20189;-82
2023/01/24 03:45:41;;;;;;;32.30;23.47;;;3.70;86.10;;;;;;5056163;28;20279;-82
2023/01/24 03:48:12;;;;;;;31.57;23.87;;;3.80;86.10;;;;;;5056374;28;20169;-84
2023/01/24 03:53:30;;;;;;;28.60;22.40;;;3.80;84.10;;;;;;5056473;28;20223;-83
2023/01/24 03:55:58;;;;;;;28.73;22.50;;;3.70;86.00;;;;;;5055029;28;20220;-81
2023/01/24 03:58:25;;;;;;;23.77;16.30;;;3.70;85.50;;;;;;5054905;28;20203;-82
2023/01/24 04:00:53;;;;;;;29.67;21.60;;;3.70;85.50;;;;;;5054630;28;20177;-82
2023/01/24 04:03:19;;;;;;;27.13;19.23;;;3.60;86.50;;;;;;5054737;28;20614;-81
2023/01/24 04:05:47;;;;;;;30.37;22.47;;;3.60;87.60;;;;;;5055132;28;20161;-81
2023/01/24 04:08:13;;;;;;;26.93;19.50;;;3.70;86.80;;;;;;5054744;28;20268;-81
2023/01/24 04:10:38;;;;;;;26.70;19.43;;;3.60;86.70;;;;;;5056138;28;20252;-83
2023/01/24 04:13:04;;;;;;;26.23;18.70;;;3.70;85.60;;;;;;5054300;28;20184;-85
2023/01/24 04:15:32;;;;;;;28.10;21.50;;;3.60;87.10;;;;;;5053381;28;20189;-82
2023/01/24 04:18:01;;;;;;;27.30;21.10;;;3.60;87.40;;;;;;5054592;28;20177;-84
2023/01/24 04:20:28;;;;;;;27.90;21.03;;;3.70;86.40;;;;;;5056079;28;20210;-82
2023/01/24 04:22:54;;;;;;;27.43;21.17;;;3.70;86.10;;;;;;5054577;28;20176;-81
2023/01/24 04:25:21;;;;;;;27.00;20.73;;;3.90;85.10;;;;;;5054800;28;20394;-81
2023/01/24 04:27:48;;;;;;;26.57;20.93;;;3.60;83.90;;;;;;5054411;28;20267;-82
2023/01/24 04:30:16;;;;;;;28.90;21.13;;;3.80;84.50;;;;;;5056298;28;20185;-82
2023/01/24 04:32:42;;;;;;;27.63;20.70;;;3.70;83.70;;;;;;5054609;28;20267;-82
2023/01/24 04:35:09;;;;;;;26.40;19.80;;;3.70;83.80;;;;;;5054705;28;20315;-83
2023/01/24 04:37:35;;;;;;;25.17;19.60;;;3.60;84.20;;;;;;5054604;28;20230;-83
2023/01/24 04:40:01;;;;;;;24.77;19.47;;;3.70;84.40;;;;;;5054553;28;20216;-81
2023/01/24 04:42:27;;;;;;;23.50;17.33;;;3.50;84.80;;;;;;5055236;28;20529;-83
2023/01/24 04:44:53;;;;;;;27.73;21.03;;;3.60;86.10;;;;;;5054168;28;20664;-81
2023/01/24 04:47:19;;;;;;;27.83;20.40;;;3.50;87.70;;;;;;5054498;28;20185;-81
2023/01/24 04:49:47;;;;;;;24.40;18.10;;;3.50;87.90;;;;;;5054893;28;20199;-82
2023/01/24 04:52:13;;;;;;;25.17;19.47;;;3.60;88.30;;;;;;5056208;28;20158;-82
2023/01/24 04:54:39;;;;;;;26.87;20.60;;;3.50;88.80;;;;;;5056611;28;20211;-83
2023/01/24 04:57:10;;;;;;;26.50;20.20;;;3.40;88.70;;;;;;5056502;28;20165;-81
2023/01/24 04:59:36;;;;;;;28.67;21.67;;;3.60;89.40;;;;;;5055017;28;20262;-83
2023/01/24 05:02:02;;;;;;;28.20;21.23;;;3.60;89.20;;;;;;5056772;28;20169;-82
2023/01/24 05:04:27;;;;;;;25.40;20.00;;;3.50;88.70;;;;;;5056572;28;20272;-84
2023/01/24 05:06:53;;;;;;;24.83;19.47;;;3.60;88.40;;;;;;5059447;28;20177;-81
2023/01/24 05:09:19;;;;;;;25.27;18.77;;;3.50;87.40;;;;;;5071998;28;20181;-82
2023/01/24 05:11:44;;;;;;;25.13;19.60;;;3.40;88.50;;;;;;5077420;28;20653;-81
2023/01/24 05:14:10;;;;;;;27.00;19.30;;;3.40;90.50;;;;;;5076561;28;20192;-81
2023/01/24 05:16:37;;;;;;;26.27;20.53;;;3.40;90.50;;;;;;5077721;28;20172;-80
2023/01/24 05:19:03;;;;;;;24.70;17.43;;;3.40;90.60;;;;;;5076727;28;20272;-79
2023/01/24 05:21:29;;;;;;;24.23;18.80;;;3.50;90.60;;;;;;5075875;28;20177;-79
2023/01/24 05:23:55;;;;;;;23.00;17.40;;;3.50;90.80;;;;;;5075515;28;20181;-79
2023/01/24 05:26:22;;;;;;;27.07;19.43;;;3.40;91.00;;;;;;5066438;28;20172;-80
2023/01/24 05:28:49;;;;;;;28.47;22.10;;;3.50;91.10;;;;;;5073928;28;20162;-81
2023/01/24 05:31:15;;;;;;;27.97;20.53;;;3.40;91.30;;;;;;5070482;28;20173;-79
2023/01/24 05:33:41;;;;;;;28.53;22.33;;;3.40;90.90;;;;;;5076386;28;20196;-81
2023/01/24 05:36:11;;;;;;;26.70;20.60;;;3.40;90.80;;;;;;5076871;28;20180;-80
2023/01/24 05:38:37;;;;;;;26.67;18.50;;;3.30;90.60;;;;;;5077740;28;20192;-80
2023/01/24 05:41:05;;;;;;;26.87;20.87;;;3.40;90.80;;;;;;5076911;28;20212;-82
2023/01/24 05:43:31;;;;;;;27.90;21.47;;;3.30;90.90;;;;;;5059330;28;20177;-81
2023/01/24 05:46:09;;;;;;;26.40;19.70;;;3.40;91.10;;;;;;5053231;28;20181;-81
2023/01/24 05:48:34;;;;;;;23.37;18.20;;;3.40;90.50;;;;;;5054491;28;20173;-82
2023/01/24 05:51:08;;;;;;;27.00;21.37;;;3.40;90.20;;;;;;5054072;28;20177;-81
2023/01/24 05:53:37;;;;;;;26.63;20.27;;;3.30;90.90;;;;;;5053907;28;20684;-81
2023/01/24 05:56:06;;;;;;;27.73;21.50;;;3.30;91.50;;;;;;5053182;28;20292;-80
2023/01/24 05:58:35;;;;;;;28.63;21.77;;;3.30;92.10;;;;;;5054640;28;20197;-81
2023/01/24 06:01:01;;;;;;;30.90;23.37;;;3.30;91.30;;;;;;5054408;28;20314;-81
2023/01/24 06:03:27;;;;;;;28.97;22.37;;;3.40;91.50;;;;;;5054383;28;20263;-81
2023/01/24 06:05:54;;;;;;;32.40;23.03;;;3.40;91.40;;;;;;5052759;28;20177;-82
2023/01/24 06:08:20;;;;;;;29.63;23.20;;;3.40;91.00;;;;;;5054076;28;20199;-82
2023/01/24 06:10:46;;;;;;;31.27;23.70;;;3.60;90.80;;;;;;5053667;28;20264;-80
2023/01/24 06:13:12;;;;;;;27.60;19.93;;;3.50;90.70;;;;;;5053595;28;20709;-81
2023/01/24 06:15:38;;;;;;;28.27;20.63;;;3.70;90.30;;;;;;5053660;28;20220;-82
2023/01/24 06:18:05;;;;;;;28.27;18.77;;;3.40;90.60;;;;;;5053552;28;20211;-82
2023/01/24 06:20:32;;;;;;;28.83;21.30;;;3.50;91.00;;;;;;5054415;28;20212;-81
2023/01/24 06:23:10;;;;;;;27.77;22.87;;;3.30;92.10;;;;;;5053565;28;20187;-82
2023/01/24 06:25:36;;;;;;;31.73;22.00;;;3.30;93.00;;;;;;5054407;28;20657;-82
2023/01/24 06:28:02;;;;;;;28.30;22.30;;;3.30;93.10;;;;;;5054297;28;20173;-82
2023/01/24 06:30:28;;;;;;;29.30;21.63;;;3.40;92.60;;;;;;5054138;28;20256;-82
2023/01/24 06:33:05;;;;;;;32.87;23.43;;;3.30;91.80;;;;;;5053614;28;20196;-82
2023/01/24 06:36:17;;;;;;;31.70;23.07;;;3.30;92.80;;;;;;5052002;28;20180;-82
2023/01/24 06:38:43;;;;;;;31.50;21.83;;;3.30;92.50;;;;;;5050609;28;20208;-82
2023/01/24 06:41:15;;;;;;;27.67;20.83;;;3.20;93.20;;;;;;5054011;28;20191;-81
2023/01/24 06:43:41;;;;;;;32.83;23.10;;;3.20;93.20;;;;;;5053738;28;20712;-81
2023/01/24 06:46:08;;;;;;;30.53;23.77;;;3.20;92.90;;;;;;5055535;28;20177;-80
2023/01/24 06:48:34;;;;;;;28.27;22.03;;;3.40;93.00;;;;;;5053426;28;20173;-80
2023/01/24 06:51:01;;;;;;;31.83;23.90;;;3.30;92.30;;;;;;5061482;28;20168;-81
2023/01/24 06:53:27;;;;;;;30.43;23.17;;;3.30;92.00;;;;;;5064776;28;20180;-81
2023/01/24 06:55:53;;;;;;;31.60;21.27;;;3.50;91.70;;;;;;5072712;28;20184;-82
2023/01/24 06:58:19;;;;;;;34.60;24.57;;;3.30;92.00;;;;;;5038451;28;20177;-83
2023/01/24 07:00:47;;;;;;;34.97;25.77;;;3.30;93.00;;;;;;5045445;28;20208;-82
2023/01/24 07:03:13;;;;;;;36.33;25.60;;;3.20;93.60;;;;;;5064701;28;20173;-81
2023/01/24 07:05:39;;;;;;;38.83;26.30;;;3.20;94.00;;;;;;5058064;28;20268;-82
2023/01/24 07:08:05;;;;;;;34.80;26.07;;;3.30;93.80;;;;;;5036399;28;20227;-83
2023/01/24 07:10:32;;;;;;;32.67;24.07;;;3.30;93.60;;;;;;5056527;28;20219;-83
2023/01/24 07:13:00;;;;;;;38.63;27.37;;;3.40;92.60;;;;;;5057280;28;20235;-82
2023/01/24 07:15:25;;;;;;;37.33;26.17;;;3.20;92.80;;;;;;5056912;28;20211;-83
2023/01/24 07:17:51;;;;;;;32.37;22.07;;;3.20;93.60;;;;;;5061073;28;20274;-80
2023/01/24 07:20:17;;;;;;;36.47;26.70;;;3.20;93.80;;;;;;5059315;28;20240;-82
2023/01/24 07:22:43;;;;;;;36.97;27.10;;;3.20;93.60;;;;;;5061708;28;20167;-78
2023/01/24 07:25:20;;;;;;;35.30;26.80;;;3.20;93.40;;;;;;5056866;28;20226;-80
2023/01/24 07:27:47;;;;;;;38.10;27.93;;;3.30;92.90;;;;;;5051413;28;20180;-80
2023/01/24 07:30:13;;;;;;;38.80;27.63;;;3.30;92.50;;;;;;5052815;28;20226;-81
2023/01/24 07:32:39;;;;;;;36.47;25.00;;;3.30;92.80;;;;;;5053187;28;20176;-80
2023/01/24 07:35:06;;;;;;;39.20;27.37;;;3.20;93.20;;;;;;5055208;28;20259;-80
2023/01/24 07:37:32;;;;;;;35.57;24.73;;;3.20;93.70;;;;;;5064757;28;20177;-81
2023/01/24 07:39:58;;;;;;;39.20;25.73;;;3.10;94.00;;;;;;5057458;28;20209;-82
2023/01/24 07:42:24;;;;;;;42.07;29.93;;;3.10;94.40;;;;;;5053694;28;20493;-81
2023/01/24 07:44:49;;;;;;;42.47;30.40;;;3.10;94.60;;;;;;5055864;28;20177;-82
2023/01/24 07:47:16;;;;;;;41.03;29.13;;;3.20;95.00;;;;;;5056597;28;20192;-81
2023/01/24 07:49:41;;;;;;;36.30;25.03;;;3.30;94.70;;;;;;5057295;28;20269;-81
2023/01/24 07:52:07;;;;;;;41.43;29.37;;;3.30;94.40;;;;;;5056222;28;20256;-83
2023/01/24 07:54:33;;;;;;;39.60;27.97;;;3.20;94.20;;;;;;5056933;28;20575;-82
2023/01/24 07:57:00;;;;;;;38.77;28.33;;;3.10;94.10;;;;;;5065137;28;20172;-82
2023/01/24 07:59:26;;;;;;;39.50;28.37;;;3.20;94.60;;;;;;5066052;28;20205;-81
2023/01/24 08:01:51;;;;;;;37.10;26.77;;;3.20;94.20;;;;;;5063501;28;20553;-84
2023/01/24 08:04:17;;;;;;;43.07;30.03;;;3.30;94.10;;;;;;5058412;28;20173;-81
2023/01/24 08:09:30;;;;;;;40.57;27.20;;;3.20;94.40;;;;;;5058519;28;20176;-83
2023/01/24 08:11:56;;;;;;;43.63;29.53;;;3.10;94.50;;;;;;5056934;28;20237;-82
2023/01/24 08:14:22;;;;;;;44.87;30.10;;;3.10;94.80;;;;;;5059649;28;20173;-84
2023/01/24 08:16:51;;;;;;;41.00;30.83;;;3.10;94.80;;;;;;5064408;28;20540;-79
2023/01/24 08:19:17;;;;;;;41.60;29.87;;;3.20;94.20;;;;;;5075098;28;20211;-81
2023/01/24 08:21:43;;;;;;;39.07;27.80;;;3.30;93.90;;;;;;5079211;28;20196;-82
2023/01/24 08:24:09;;;;;;;42.13;28.53;;;3.20;93.80;;;;;;5080311;28;20179;-81
2023/01/24 08:26:35;;;;;;;40.43;27.73;;;3.20;93.30;;;;;;5071658;28;20173;-82
2023/01/24 08:29:12;;;;;;;37.53;25.50;;;3.20;92.90;;;;;;5058935;28;20177;-80
2023/01/24 08:31:39;;;;;;;41.50;27.20;;;3.20;92.80;;;;;;5058424;28;20265;-82
2023/01/24 08:34:27;;;;;;;36.60;26.93;;;3.20;93.20;;;;;;5060031;28;20180;-83
2023/01/24 08:36:53;;;;;;;38.63;28.43;;;3.10;92.90;;;;;;5057232;28;20505;-81
2023/01/24 08:39:19;;;;;;;44.70;32.97;;;3.20;93.00;;;;;;5055621;28;20227;-82
2023/01/24 08:41:46;;;;;;;42.63;31.83;;;3.20;92.90;;;;;;5055878;28;20157;-81
2023/01/24 08:44:13;;;;;;;42.37;30.97;;;3.30;92.50;;;;;;5057404;28;20252;-82
2023/01/24 08:46:39;;;;;;;44.83;31.20;;;3.20;91.50;;;;;;5057196;28;20211;-82
2023/01/24 08:49:05;;;;;;;44.13;32.27;;;3.40;91.50;;;;;;5058071;28;20248;-81
2023/01/24 08:51:31;;;;;;;41.67;31.07;;;3.30;91.10;;;;;;5056104;28;20267;-82
2023/01/24 08:53:57;;;;;;;37.30;27.33;;;3.30;90.90;;;;;;5055784;28;20181;-81
2023/01/24 08:56:23;;;;;;;39.97;30.63;;;3.30;90.00;;;;;;5055854;28;20180;-81
2023/01/24 08:58:49;;;;;;;40.13;28.63;;;3.20;90.10;;;;;;5055795;28;20231;-82
2023/01/24 09:01:15;;;;;;;39.27;29.47;;;3.20;89.70;;;;;;5040495;28;20189;-81
2023/01/24 09:03:41;;;;;;;40.43;28.57;;;3.40;90.50;;;;;;5056482;28;20180;-83
2023/01/24 09:06:06;;;;;;;41.00;29.17;;;3.20;89.40;;;;;;5055871;28;20181;-80
2023/01/24 09:08:33;;;;;;;38.47;27.60;;;3.20;90.10;;;;;;5057256;28;20624;-83
2023/01/24 09:10:59;;;;;;;42.63;31.80;;;3.20;90.60;;;;;;5039267;28;20177;-82
2023/01/24 09:13:25;;;;;;;43.20;30.93;;;3.30;91.30;;;;;;5056517;28;20242;-82
2023/01/24 09:15:53;;;;;;;41.80;32.87;;;3.40;90.90;;;;;;5055299;28;20188;-83
2023/01/24 09:18:19;;;;;;;45.90;33.40;;;3.40;90.20;;;;;;5038773;28;20184;-82
2023/01/24 09:20:45;;;;;;;43.90;31.27;;;3.40;89.30;;;;;;5056078;28;20184;-82
2023/01/24 09:23:14;;;;;;;42.53;32.93;;;3.50;90.00;;;;;;5055882;28;20654;-83
2023/01/24 09:25:41;;;;;;;45.07;33.03;;;3.60;89.50;;;;;;5055997;28;20188;-81
2023/01/24 09:28:07;;;;;;;42.33;33.10;;;3.50;88.00;;;;;;5056832;28;20172;-85
2023/01/24 09:30:34;;;;;;;45.87;34.47;;;3.60;87.80;;;;;;5054698;28;20258;-81
2023/01/24 09:33:05;;;;;;;40.10;29.50;;;3.60;87.80;;;;;;5053992;28;20218;-82
2023/01/24 09:35:30;;;;;;;40.23;30.93;;;3.70;87.50;;;;;;5054202;28;20177;-82
2023/01/24 09:37:56;;;;;;;40.43;31.23;;;3.60;86.10;;;;;;5055479;28;20231;-82
2023/01/24 09:41:08;;;;;;;39.77;30.57;;;3.60;85.60;;;;;;5054522;28;20270;-80
2023/01/24 09:43:42;;;;;;;48.40;31.10;;;3.70;84.00;;;;;;5007802;28;20185;-85
2023/01/24 09:46:25;;;;;;;36.93;25.97;;;3.80;83.40;;;;;;5055343;28;20226;-81
2023/01/24 09:49:32;;;;;;;37.43;28.20;;;3.70;79.80;;;;;;5056911;28;20165;-82
2023/01/24 09:51:59;;;;;;;35.53;25.87;;;3.60;81.20;;;;;;5044796;28;20177;-84
2023/01/24 09:54:38;;;;;;;38.53;28.07;;;3.50;81.10;;;;;;5054807;28;20204;-81
2023/01/24 09:57:32;;;;;;;34.47;26.50;;;3.50;82.40;;;;;;5054878;28;20640;-84
2023/01/24 10:00:29;;;;;;;35.77;26.57;;;3.40;83.90;;;;;;5055775;28;20216;-82
2023/01/24 10:02:56;;;;;;;33.47;26.17;;;3.40;83.70;;;;;;5051415;28;20180;-82
2023/01/24 10:05:34;;;;;;;35.97;27.47;;;3.50;83.70;;;;;;5039050;28;20275;-81
2023/01/24 10:08:13;;;;;;;33.33;26.23;;;3.50;82.20;;;;;;5057568;28;20188;-80
2023/01/24 10:11:06;;;;;;;31.73;25.07;;;3.50;81.10;;;;;;5055757;28;20173;-81
2023/01/24 10:14:26;;;;;;;33.43;25.20;;;3.60;78.80;;;;;;5049093;28;20201;-82
2023/01/24 10:17:06;;;;;;;31.13;23.70;;;3.50;77.30;;;;;;4978668;28;20218;-82
2023/01/24 10:19:53;;;;;;;31.87;25.87;;;3.50;77.10;;;;;;5055794;28;20200;-83
2023/01/24 10:22:24;;;;;;;32.23;24.87;;;3.50;77.30;;;;;;5058567;28;20169;-83
2023/01/24 10:25:34;;;;;;;30.87;24.93;;;3.60;75.70;;;;;;5057060;28;20172;-83
2023/01/24 10:28:02;;;;;;;33.10;26.03;;;3.60;75.70;;;;;;5043400;28;20231;-84
2023/01/24 10:30:39;;;;;;;33.03;26.47;;;3.70;73.60;;;;;;5057889;28;20299;-82
2023/01/24 10:33:16;;;;;;;33.27;26.67;;;3.80;73.40;;;;;;5054707;28;20226;-82
2023/01/24 10:35:51;;;;;;;35.97;28.20;;;3.70;71.90;;;;;;5053285;28;20176;-81
2023/01/24 10:38:18;;;;;;;34.00;27.87;;;3.60;74.70;;;;;;5054035;28;20179;-83
2023/01/24 10:40:54;;;;;;;35.47;28.07;;;3.60;75.30;;;;;;5053396;28;20209;-82
2023/01/24 10:43:23;;;;;;;32.27;25.57;;;3.50;75.80;;;;;;5054844;28;20291;-85
2023/01/24 10:45:54;;;;;;;33.30;24.87;;;3.50;76.50;;;;;;5055072;28;20168;-85
2023/01/24 10:48:42;;;;;;;36.97;26.10;;;3.60;76.70;;;;;;5054046;28;20200;-88
2023/01/24 10:51:14;;;;;;;33.47;24.63;;;3.40;77.60;;;;;;5054871;28;20169;-85
2023/01/24 10:53:39;;;;;;;34.80;25.83;;;3.30;79.60;;;;;;5053561;28;20173;-84
2023/01/24 10:56:06;;;;;;;39.00;27.27;;;3.40;79.10;;;;;;5052878;28;20203;-83
2023/01/24 10:58:43;;;;;;;32.90;24.97;;;3.40;79.80;;;;;;5053540;28;20204;-84
2023/01/24 11:01:20;;;;;;;34.63;27.20;;;3.40;80.20;;;;;;5055946;28;20229;-83
2023/01/24 11:03:48;;;;;;;31.70;25.63;;;3.40;80.70;;;;;;5055153;28;20176;-86
2023/01/24 11:06:33;;;;;;;34.07;25.57;;;3.40;80.20;;;;;;5055558;28;20173;-85
2023/01/24 11:09:25;;;;;;;29.73;23.13;;;3.50;79.20;;;;;;5056667;28;20211;-83
2023/01/24 11:11:54;;;;;;;30.27;24.10;;;3.50;76.50;;;;;;5054700;28;20192;-85
2023/01/24 11:14:23;;;;;;;31.53;22.97;;;3.50;74.20;;;;;;5054333;28;20203;-83
2023/01/24 11:16:51;;;;;;;31.53;25.20;;;3.60;75.20;;;;;;5056449;28;20182;-85
2023/01/24 11:19:38;;;;;;;31.30;25.53;;;3.70;73.20;;;;;;5056437;28;20208;-84
2023/01/24 11:22:22;;;;;;;26.13;19.90;;;3.50;75.00;;;;;;5057208;28;20168;-82
2023/01/24 11:24:48;;;;;;;26.77;20.13;;;3.50;72.70;;;;;;5058074;28;20175;-85
2023/01/24 11:27:16;;;;;;;29.73;21.70;;;3.50;72.00;;;;;;5058035;28;20222;-83
2023/01/24 11:29:42;;;;;;;29.80;23.77;;;3.50;73.40;;;;;;5058464;28;20629;-85
2023/01/24 11:32:36;;;;;;;30.90;23.50;;;3.50;75.30;;;;;;5060890;28;20180;-85
2023/01/24 11:35:07;;;;;;;30.43;23.93;;;3.50;74.00;;;;;;5058278;28;20172;-83
2023/01/24 11:37:43;;;;;;;31.77;23.27;;;3.60;74.80;;;;;;5057688;28;20169;-83
2023/01/24 11:40:21;;;;;;;33.33;25.53;;;3.70;73.60;;;;;;5058112;28;20211;-82
2023/01/24 11:42:59;;;;;;;31.33;23.67;;;3.70;72.30;;;;;;5060015;28;20528;-85
2023/01/24 11:45:52;;;;;;;30.43;23.97;;;3.70;69.40;;;;;;5059339;28;20183;-85
2023/01/24 11:48:25;;;;;;;30.60;23.00;;;3.70;69.30;;;;;;5059311;28;20180;-82
2023/01/24 11:51:08;;;;;;;30.83;25.33;;;3.70;69.50;;;;;;5058577;28;20260;-85
2023/01/24 11:53:49;;;;;;;42.83;30.13;;;3.70;69.30;;;;;;5058934;28;20157;-85
2023/01/24 11:56:23;;;;;;;32.13;23.73;;;4.00;70.00;;;;;;5057012;28;20674;-82
2023/01/24 11:58:57;;;;;;;34.30;26.33;;;3.90;69.10;;;;;;5059176;28;20188;-85
2023/01/24 12:01:44;;;;;;;33.10;26.27;;;3.90;67.50;;;;;;5058001;28;20214;-84
2023/01/24 12:04:35;;;;;;;30.57;24.30;;;3.90;69.60;;;;;;5057450;28;20625;-82
2023/01/24 12:07:19;;;;;;;35.27;27.57;;;3.80;68.40;;;;;;5056600;28;20176;-86
2023/01/24 12:10:11;;;;;;;33.57;25.77;;;3.80;70.20;;;;;;5056359;28;20224;-84
2023/01/24 12:12:44;;;;;;;31.67;25.43;;;3.70;70.00;;;;;;5016464;28;20283;-86
2023/01/24 12:15:30;;;;;;;34.73;25.87;;;3.60;72.30;;;;;;5058899;28;20184;-81
2023/01/24 12:18:10;;;;;;;37.23;28.57;;;3.70;71.50;;;;;;5058114;28;20252;-86
2023/01/24 12:20:57;;;;;;;38.83;28.90;;;3.60;73.20;;;;;;5058686;28;20292;-83
2023/01/24 12:23:35;;;;;;;36.67;28.50;;;3.70;73.50;;;;;;5064366;28;20184;-84
2023/01/24 12:26:16;;;;;;;37.70;29.13;;;3.80;73.10;;;;;;5057016;28;20267;-85
2023/01/24 12:29:16;;;;;;;38.00;26.17;;;3.60;73.50;;;;;;5057957;28;20668;-85
2023/01/24 12:32:07;;;;;;;38.77;27.80;;;3.50;72.60;;;;;;5056833;28;20263;-82
2023/01/24 12:34:58;;;;;;;41.77;29.83;;;3.50;75.50;;;;;;5057482;28;20226;-80
2023/01/24 12:37:38;;;;;;;36.87;27.03;;;3.50;77.20;;;;;;5056850;28;20184;-81
2023/01/24 12:40:11;;;;;;;37.43;27.03;;;3.50;75.90;;;;;;5056563;28;20671;-81
2023/01/24 12:43:20;;;;;;;41.07;29.10;;;3.50;76.20;;;;;;5058791;28;20573;-82
2023/01/24 12:45:56;;;;;;;34.83;23.17;;;3.50;77.60;;;;;;5032232;28;20603;-82
2023/01/24 12:48:31;;;;;;;35.83;26.30;;;3.30;76.80;;;;;;5055657;28;20188;-82
2023/01/24 12:51:15;;;;;;;41.53;28.83;;;3.30;79.00;;;;;;5065248;28;20237;-82
2023/01/24 12:54:08;;;;;;;40.30;30.10;;;3.30;80.30;;;;;;5073301;28;20172;-82
2023/01/24 12:56:47;;;;;;;37.63;26.93;;;3.40;80.90;;;;;;5065782;28;20181;-82
2023/01/24 12:59:16;;;;;;;39.53;27.13;;;3.40;80.90;;;;;;5070406;28;20220;-84
2023/01/24 13:02:06;;;;;;;39.73;30.67;;;3.40;81.20;;;;;;5056294;28;20213;-83
2023/01/24 13:05:17;;;;;;;40.83;30.17;;;3.40;80.40;;;;;;5055187;28;20216;-83
2023/01/24 13:08:32;;;;;;;38.83;30.50;;;3.50;80.70;;;;;;5055112;28;20172;-81
2023/01/24 13:11:20;;;;;;;39.03;30.67;;;3.50;77.50;;;;;;5054819;28;20226;-81
2023/01/24 13:14:06;;;;;;;36.10;27.27;;;3.50;77.20;;;;;;5054805;28;20280;-83
2023/01/24 13:16:53;;;;;;;43.50;30.60;;;3.60;76.20;;;;;;5055897;28;20207;-82
2023/01/24 13:19:47;;;;;;;40.97;30.60;;;3.60;75.30;;;;;;5054348;28;20201;-80
2023/01/24 13:22:54;;;;;;;38.93;28.57;;;3.60;75.90;;;;;;5054460;28;20583;-82
2023/01/24 13:25:41;;;;;;;39.03;28.07;;;3.60;74.70;;;;;;5054711;28;20168;-83
2023/01/24 13:28:31;;;;;;;38.83;29.70;;;3.50;76.20;;;;;;5056839;28;20641;-81
2023/01/24 13:31:02;;;;;;;40.37;28.67;;;3.40;76.40;;;;;;5071608;28;20522;-80
2023/01/24 13:33:52;;;;;;;37.50;27.50;;;3.40;77.60;;;;;;5058685;28;20185;-82
2023/01/24 13:36:38;;;;;;;39.20;29.20;;;3.40;79.00;;;;;;5062427;28;20169;-79
2023/01/24 13:39:31;;;;;;;39.70;29.30;;;3.40;79.90;;;;;;5074327;28;20208;-80